sensor_id;sensor_type;location;lat;lon;timestamp;P1;durP1;ratioP1;P2;durP2;ratioP2
826;SDS011;395;48.132;11.608;2023-05-07T00:01:25;8.23;;;7.43;;
826;SDS011;395;48.132;11.608;2023-05-07T00:03:51;8.20;;;7.40;;
826;SDS011;395;48.132;11.608;2023-05-07T00:06:16;8.07;;;7.27;;
826;SDS011;395;48.132;11.608;2023-05-07T00:08:42;9.60;;;7.60;;
826;SDS011;395;48.132;11.608;2023-05-07T00:11:08;9.30;;;7.10;;
826;SDS011;395;48.132;11.608;2023-05-07T00:13:33;12.63;;;7.40;;
826;SDS011;395;48.132;11.608;2023-05-07T00:16:03;8.37;;;7.67;;
826;SDS011;395;48.132;11.608;2023-05-07T00:18:30;9.23;;;8.33;;
826;SDS011;395;48.132;11.608;2023-05-07T00:20:55;8.60;;;7.43;;
826;SDS011;395;48.132;11.608;2023-05-07T00:23:21;8.37;;;7.30;;
826;SDS011;395;48.132;11.608;2023-05-07T00:25:48;9.00;;;8.00;;
826;SDS011;395;48.132;11.608;2023-05-07T00:28:14;8.90;;;8.00;;
826;SDS011;395;48.132;11.608;2023-05-07T00:30:40;8.87;;;7.87;;
826;SDS011;395;48.132;11.608;2023-05-07T00:33:06;8.37;;;7.57;;
826;SDS011;395;48.132;11.608;2023-05-07T00:35:31;9.33;;;7.97;;
826;SDS011;395;48.132;11.608;2023-05-07T00:37:57;9.07;;;8.27;;
826;SDS011;395;48.132;11.608;2023-05-07T00:40:23;9.47;;;8.20;;
826;SDS011;395;48.132;11.608;2023-05-07T00:42:48;8.20;;;7.50;;
826;SDS011;395;48.132;11.608;2023-05-07T00:45:15;8.03;;;7.30;;
826;SDS011;395;48.132;11.608;2023-05-07T00:47:41;8.33;;;7.10;;
826;SDS011;395;48.132;11.608;2023-05-07T00:50:08;7.50;;;6.77;;
826;SDS011;395;48.132;11.608;2023-05-07T00:52:37;8.67;;;7.77;;
826;SDS011;395;48.132;11.608;2023-05-07T00:55:04;8.47;;;7.70;;
826;SDS011;395;48.132;11.608;2023-05-07T00:57:40;9.03;;;7.90;;
826;SDS011;395;48.132;11.608;2023-05-07T01:00:06;8.10;;;7.37;;
826;SDS011;395;48.132;11.608;2023-05-07T01:02:34;8.20;;;7.50;;
826;SDS011;395;48.132;11.608;2023-05-07T01:05:00;7.43;;;6.87;;
826;SDS011;395;48.132;11.608;2023-05-07T01:07:28;8.10;;;7.30;;
826;SDS011;395;48.132;11.608;2023-05-07T01:09:54;9.40;;;7.17;;
826;SDS011;395;48.132;11.608;2023-05-07T01:12:20;7.50;;;6.73;;
826;SDS011;395;48.132;11.608;2023-05-07T01:14:46;8.10;;;7.30;;
826;SDS011;395;48.132;11.608;2023-05-07T01:17:14;11.60;;;7.37;;
826;SDS011;395;48.132;11.608;2023-05-07T01:19:41;8.27;;;7.57;;
826;SDS011;395;48.132;11.608;2023-05-07T01:22:10;8.20;;;7.40;;
826;SDS011;395;48.132;11.608;2023-05-07T01:24:36;8.80;;;8.00;;
826;SDS011;395;48.132;11.608;2023-05-07T01:27:03;8.80;;;8.00;;
826;SDS011;395;48.132;11.608;2023-05-07T01:29:29;8.03;;;7.33;;
826;SDS011;395;48.132;11.608;2023-05-07T01:31:58;8.40;;;7.70;;
826;SDS011;395;48.132;11.608;2023-05-07T01:34:25;8.63;;;7.90;;
826;SDS011;395;48.132;11.608;2023-05-07T01:36:56;9.53;;;8.17;;
826;SDS011;395;48.132;11.608;2023-05-07T01:39:27;8.73;;;7.93;;
826;SDS011;395;48.132;11.608;2023-05-07T01:41:57;9.07;;;8.30;;
826;SDS011;395;48.132;11.608;2023-05-07T01:44:24;9.53;;;8.73;;
826;SDS011;395;48.132;11.608;2023-05-07T01:46:51;9.13;;;8.33;;
826;SDS011;395;48.132;11.608;2023-05-07T01:49:18;8.73;;;7.83;;
826;SDS011;395;48.132;11.608;2023-05-07T01:51:44;9.63;;;8.73;;
826;SDS011;395;48.132;11.608;2023-05-07T01:54:10;8.90;;;8.07;;
826;SDS011;395;48.132;11.608;2023-05-07T01:56:36;9.83;;;8.10;;
826;SDS011;395;48.132;11.608;2023-05-07T01:59:01;15.10;;;8.77;;
826;SDS011;395;48.132;11.608;2023-05-07T02:01:27;8.77;;;7.97;;
826;SDS011;395;48.132;11.608;2023-05-07T02:03:53;8.70;;;7.90;;
826;SDS011;395;48.132;11.608;2023-05-07T02:06:19;12.17;;;8.90;;
826;SDS011;395;48.132;11.608;2023-05-07T02:08:45;9.30;;;8.40;;
826;SDS011;395;48.132;11.608;2023-05-07T02:11:11;10.03;;;9.03;;
826;SDS011;395;48.132;11.608;2023-05-07T02:13:36;9.70;;;8.77;;
826;SDS011;395;48.132;11.608;2023-05-07T02:16:02;9.50;;;8.40;;
826;SDS011;395;48.132;11.608;2023-05-07T02:18:28;9.87;;;8.97;;
826;SDS011;395;48.132;11.608;2023-05-07T02:20:54;9.53;;;8.10;;
826;SDS011;395;48.132;11.608;2023-05-07T02:23:20;9.93;;;8.87;;
826;SDS011;395;48.132;11.608;2023-05-07T02:25:45;8.93;;;8.03;;
826;SDS011;395;48.132;11.608;2023-05-07T02:28:11;9.90;;;8.90;;
826;SDS011;395;48.132;11.608;2023-05-07T02:30:37;8.50;;;7.80;;
826;SDS011;395;48.132;11.608;2023-05-07T02:33:04;9.20;;;8.30;;
826;SDS011;395;48.132;11.608;2023-05-07T02:35:29;9.93;;;8.97;;
826;SDS011;395;48.132;11.608;2023-05-07T02:37:55;9.97;;;8.57;;
826;SDS011;395;48.132;11.608;2023-05-07T02:40:21;9.00;;;8.20;;
826;SDS011;395;48.132;11.608;2023-05-07T02:42:46;10.50;;;8.47;;
826;SDS011;395;48.132;11.608;2023-05-07T02:45:12;7.90;;;7.10;;
826;SDS011;395;48.132;11.608;2023-05-07T02:47:38;8.00;;;7.20;;
826;SDS011;395;48.132;11.608;2023-05-07T02:50:03;6.67;;;6.17;;
826;SDS011;395;48.132;11.608;2023-05-07T02:52:29;8.20;;;7.50;;
826;SDS011;395;48.132;11.608;2023-05-07T02:54:55;7.97;;;7.27;;
826;SDS011;395;48.132;11.608;2023-05-07T02:57:20;8.33;;;6.93;;
826;SDS011;395;48.132;11.608;2023-05-07T02:59:46;7.87;;;7.13;;
826;SDS011;395;48.132;11.608;2023-05-07T03:02:12;6.93;;;6.33;;
826;SDS011;395;48.132;11.608;2023-05-07T03:04:38;7.80;;;7.10;;
826;SDS011;395;48.132;11.608;2023-05-07T03:07:04;7.03;;;6.30;;
826;SDS011;395;48.132;11.608;2023-05-07T03:09:30;7.40;;;6.70;;
826;SDS011;395;48.132;11.608;2023-05-07T03:11:56;7.40;;;6.60;;
826;SDS011;395;48.132;11.608;2023-05-07T03:14:22;7.37;;;6.67;;
826;SDS011;395;48.132;11.608;2023-05-07T03:16:48;8.10;;;6.27;;
826;SDS011;395;48.132;11.608;2023-05-07T03:19:14;6.30;;;5.80;;
826;SDS011;395;48.132;11.608;2023-05-07T03:21:40;6.53;;;5.90;;
826;SDS011;395;48.132;11.608;2023-05-07T03:24:05;7.03;;;6.40;;
826;SDS011;395;48.132;11.608;2023-05-07T03:26:31;6.50;;;6.00;;
826;SDS011;395;48.132;11.608;2023-05-07T03:28:57;6.50;;;6.00;;
826;SDS011;395;48.132;11.608;2023-05-07T03:31:22;8.03;;;6.03;;
826;SDS011;395;48.132;11.608;2023-05-07T03:33:55;7.20;;;6.60;;
826;SDS011;395;48.132;11.608;2023-05-07T03:36:22;7.07;;;6.33;;
826;SDS011;395;48.132;11.608;2023-05-07T03:38:49;6.97;;;6.37;;
826;SDS011;395;48.132;11.608;2023-05-07T03:41:15;6.60;;;6.00;;
826;SDS011;395;48.132;11.608;2023-05-07T03:43:40;5.87;;;5.30;;
826;SDS011;395;48.132;11.608;2023-05-07T03:46:06;6.43;;;5.83;;
826;SDS011;395;48.132;11.608;2023-05-07T03:48:32;9.90;;;5.97;;
826;SDS011;395;48.132;11.608;2023-05-07T03:50:58;6.40;;;5.90;;
826;SDS011;395;48.132;11.608;2023-05-07T03:53:24;7.03;;;6.03;;
826;SDS011;395;48.132;11.608;2023-05-07T03:55:50;8.20;;;5.70;;
826;SDS011;395;48.132;11.608;2023-05-07T03:58:16;7.80;;;6.07;;
826;SDS011;395;48.132;11.608;2023-05-07T04:00:41;6.17;;;5.60;;
826;SDS011;395;48.132;11.608;2023-05-07T04:03:07;6.50;;;5.83;;
826;SDS011;395;48.132;11.608;2023-05-07T04:05:33;6.30;;;5.80;;
826;SDS011;395;48.132;11.608;2023-05-07T04:07:59;7.00;;;6.30;;
826;SDS011;395;48.132;11.608;2023-05-07T04:10:25;5.87;;;5.37;;
826;SDS011;395;48.132;11.608;2023-05-07T04:12:51;6.37;;;5.87;;
826;SDS011;395;48.132;11.608;2023-05-07T04:15:16;6.47;;;5.87;;
826;SDS011;395;48.132;11.608;2023-05-07T04:17:42;5.40;;;5.00;;
826;SDS011;395;48.132;11.608;2023-05-07T04:20:14;7.10;;;5.43;;
826;SDS011;395;48.132;11.608;2023-05-07T04:22:40;6.07;;;5.40;;
826;SDS011;395;48.132;11.608;2023-05-07T04:25:06;5.77;;;5.27;;
826;SDS011;395;48.132;11.608;2023-05-07T04:27:34;6.20;;;5.70;;
826;SDS011;395;48.132;11.608;2023-05-07T04:30:00;6.47;;;5.87;;
826;SDS011;395;48.132;11.608;2023-05-07T04:32:27;6.70;;;6.20;;
826;SDS011;395;48.132;11.608;2023-05-07T04:34:54;6.40;;;5.80;;
826;SDS011;395;48.132;11.608;2023-05-07T04:37:20;6.90;;;6.30;;
826;SDS011;395;48.132;11.608;2023-05-07T04:39:46;6.20;;;5.60;;
826;SDS011;395;48.132;11.608;2023-05-07T04:42:15;6.03;;;5.53;;
826;SDS011;395;48.132;11.608;2023-05-07T04:44:42;5.60;;;5.10;;
826;SDS011;395;48.132;11.608;2023-05-07T04:47:09;5.87;;;5.37;;
826;SDS011;395;48.132;11.608;2023-05-07T04:49:35;6.90;;;5.73;;
826;SDS011;395;48.132;11.608;2023-05-07T04:52:02;6.63;;;6.03;;
826;SDS011;395;48.132;11.608;2023-05-07T04:54:28;10.90;;;6.83;;
826;SDS011;395;48.132;11.608;2023-05-07T04:56:54;6.50;;;6.00;;
826;SDS011;395;48.132;11.608;2023-05-07T04:59:20;6.00;;;5.50;;
826;SDS011;395;48.132;11.608;2023-05-07T05:01:46;5.60;;;5.10;;
826;SDS011;395;48.132;11.608;2023-05-07T05:04:11;5.53;;;5.03;;
826;SDS011;395;48.132;11.608;2023-05-07T05:06:38;6.00;;;5.50;;
826;SDS011;395;48.132;11.608;2023-05-07T05:09:04;6.60;;;5.47;;
826;SDS011;395;48.132;11.608;2023-05-07T05:11:30;6.40;;;5.50;;
826;SDS011;395;48.132;11.608;2023-05-07T05:13:56;5.87;;;5.37;;
826;SDS011;395;48.132;11.608;2023-05-07T05:16:21;6.53;;;5.27;;
826;SDS011;395;48.132;11.608;2023-05-07T05:18:47;6.23;;;5.10;;
826;SDS011;395;48.132;11.608;2023-05-07T05:21:13;5.90;;;5.30;;
826;SDS011;395;48.132;11.608;2023-05-07T05:23:38;6.23;;;5.47;;
826;SDS011;395;48.132;11.608;2023-05-07T05:26:04;7.00;;;5.40;;
826;SDS011;395;48.132;11.608;2023-05-07T05:28:30;7.50;;;5.30;;
826;SDS011;395;48.132;11.608;2023-05-07T05:30:55;5.30;;;4.80;;
826;SDS011;395;48.132;11.608;2023-05-07T05:33:21;5.73;;;5.30;;
826;SDS011;395;48.132;11.608;2023-05-07T05:35:46;5.90;;;5.40;;
826;SDS011;395;48.132;11.608;2023-05-07T05:38:12;5.97;;;5.37;;
826;SDS011;395;48.132;11.608;2023-05-07T05:40:38;6.50;;;5.90;;
826;SDS011;395;48.132;11.608;2023-05-07T05:43:05;6.30;;;5.80;;
826;SDS011;395;48.132;11.608;2023-05-07T05:45:31;5.87;;;5.37;;
826;SDS011;395;48.132;11.608;2023-05-07T05:47:56;6.20;;;5.70;;
826;SDS011;395;48.132;11.608;2023-05-07T05:50:22;5.70;;;5.23;;
826;SDS011;395;48.132;11.608;2023-05-07T05:52:48;6.77;;;5.80;;
826;SDS011;395;48.132;11.608;2023-05-07T05:55:14;5.77;;;5.27;;
826;SDS011;395;48.132;11.608;2023-05-07T05:57:39;6.80;;;6.17;;
826;SDS011;395;48.132;11.608;2023-05-07T06:00:06;6.87;;;6.27;;
826;SDS011;395;48.132;11.608;2023-05-07T06:02:33;6.10;;;5.60;;
826;SDS011;395;48.132;11.608;2023-05-07T06:04:58;6.53;;;6.03;;
826;SDS011;395;48.132;11.608;2023-05-07T06:07:24;7.33;;;5.97;;
826;SDS011;395;48.132;11.608;2023-05-07T06:09:50;6.60;;;5.90;;
826;SDS011;395;48.132;11.608;2023-05-07T06:12:16;7.03;;;5.77;;
826;SDS011;395;48.132;11.608;2023-05-07T06:14:44;6.07;;;5.47;;
826;SDS011;395;48.132;11.608;2023-05-07T06:17:10;5.33;;;4.83;;
826;SDS011;395;48.132;11.608;2023-05-07T06:19:35;5.80;;;5.20;;
826;SDS011;395;48.132;11.608;2023-05-07T06:22:01;7.97;;;7.27;;
826;SDS011;395;48.132;11.608;2023-05-07T06:24:27;8.23;;;7.43;;
826;SDS011;395;48.132;11.608;2023-05-07T06:26:53;6.87;;;6.17;;
826;SDS011;395;48.132;11.608;2023-05-07T06:29:19;6.80;;;5.80;;
826;SDS011;395;48.132;11.608;2023-05-07T06:31:45;5.97;;;5.23;;
826;SDS011;395;48.132;11.608;2023-05-07T06:34:11;5.60;;;5.00;;
826;SDS011;395;48.132;11.608;2023-05-07T06:36:39;4.80;;;4.40;;
826;SDS011;395;48.132;11.608;2023-05-07T06:39:05;5.90;;;4.63;;
826;SDS011;395;48.132;11.608;2023-05-07T06:41:31;5.00;;;4.50;;
826;SDS011;395;48.132;11.608;2023-05-07T06:43:57;5.13;;;4.73;;
826;SDS011;395;48.132;11.608;2023-05-07T06:46:23;7.87;;;4.80;;
826;SDS011;395;48.132;11.608;2023-05-07T06:48:48;5.20;;;4.80;;
826;SDS011;395;48.132;11.608;2023-05-07T06:51:14;5.90;;;4.57;;
826;SDS011;395;48.132;11.608;2023-05-07T06:53:39;5.20;;;4.70;;
826;SDS011;395;48.132;11.608;2023-05-07T06:56:05;4.67;;;4.30;;
826;SDS011;395;48.132;11.608;2023-05-07T06:58:31;4.93;;;4.43;;
826;SDS011;395;48.132;11.608;2023-05-07T07:00:57;5.10;;;4.13;;
826;SDS011;395;48.132;11.608;2023-05-07T07:03:23;5.13;;;4.63;;
826;SDS011;395;48.132;11.608;2023-05-07T07:05:51;4.97;;;4.57;;
826;SDS011;395;48.132;11.608;2023-05-07T07:08:18;4.57;;;4.17;;
826;SDS011;395;48.132;11.608;2023-05-07T07:10:43;4.83;;;4.43;;
826;SDS011;395;48.132;11.608;2023-05-07T07:13:09;4.70;;;4.30;;
826;SDS011;395;48.132;11.608;2023-05-07T07:15:34;4.73;;;4.40;;
826;SDS011;395;48.132;11.608;2023-05-07T07:18:00;4.00;;;3.70;;
826;SDS011;395;48.132;11.608;2023-05-07T07:20:26;4.60;;;4.30;;
826;SDS011;395;48.132;11.608;2023-05-07T07:22:51;4.47;;;4.00;;
826;SDS011;395;48.132;11.608;2023-05-07T07:25:17;4.30;;;4.00;;
826;SDS011;395;48.132;11.608;2023-05-07T07:27:42;4.23;;;3.93;;
826;SDS011;395;48.132;11.608;2023-05-07T07:30:08;4.77;;;4.10;;
826;SDS011;395;48.132;11.608;2023-05-07T07:32:34;4.20;;;3.87;;
826;SDS011;395;48.132;11.608;2023-05-07T07:35:00;4.33;;;3.97;;
826;SDS011;395;48.132;11.608;2023-05-07T07:37:26;4.00;;;3.57;;
826;SDS011;395;48.132;11.608;2023-05-07T07:39:52;4.57;;;4.10;;
826;SDS011;395;48.132;11.608;2023-05-07T07:42:18;4.50;;;4.10;;
826;SDS011;395;48.132;11.608;2023-05-07T07:44:43;3.70;;;3.40;;
826;SDS011;395;48.132;11.608;2023-05-07T07:47:09;5.27;;;4.87;;
826;SDS011;395;48.132;11.608;2023-05-07T07:49:35;4.30;;;3.90;;
826;SDS011;395;48.132;11.608;2023-05-07T07:52:01;5.87;;;4.30;;
826;SDS011;395;48.132;11.608;2023-05-07T07:54:26;4.43;;;4.13;;
826;SDS011;395;48.132;11.608;2023-05-07T07:56:52;5.80;;;4.30;;
826;SDS011;395;48.132;11.608;2023-05-07T07:59:17;4.10;;;3.80;;
826;SDS011;395;48.132;11.608;2023-05-07T08:01:44;5.10;;;4.70;;
826;SDS011;395;48.132;11.608;2023-05-07T08:04:10;4.53;;;4.20;;
826;SDS011;395;48.132;11.608;2023-05-07T08:06:36;5.30;;;4.30;;
826;SDS011;395;48.132;11.608;2023-05-07T08:09:01;5.47;;;5.07;;
826;SDS011;395;48.132;11.608;2023-05-07T08:11:27;4.87;;;4.47;;
826;SDS011;395;48.132;11.608;2023-05-07T08:13:53;4.80;;;4.30;;
826;SDS011;395;48.132;11.608;2023-05-07T08:16:20;4.30;;;4.00;;
826;SDS011;395;48.132;11.608;2023-05-07T08:18:46;4.53;;;4.23;;
826;SDS011;395;48.132;11.608;2023-05-07T08:21:11;4.30;;;4.00;;
826;SDS011;395;48.132;11.608;2023-05-07T08:23:37;4.27;;;3.83;;
826;SDS011;395;48.132;11.608;2023-05-07T08:26:03;4.40;;;4.10;;
826;SDS011;395;48.132;11.608;2023-05-07T08:28:28;3.97;;;3.67;;
826;SDS011;395;48.132;11.608;2023-05-07T08:30:54;4.90;;;4.40;;
826;SDS011;395;48.132;11.608;2023-05-07T08:33:21;4.93;;;4.43;;
826;SDS011;395;48.132;11.608;2023-05-07T08:35:47;4.20;;;3.90;;
826;SDS011;395;48.132;11.608;2023-05-07T08:38:13;3.90;;;3.50;;
826;SDS011;395;48.132;11.608;2023-05-07T08:40:39;4.23;;;3.90;;
826;SDS011;395;48.132;11.608;2023-05-07T08:43:06;4.70;;;4.10;;
826;SDS011;395;48.132;11.608;2023-05-07T08:45:35;3.70;;;3.40;;
826;SDS011;395;48.132;11.608;2023-05-07T08:48:05;4.20;;;3.90;;
826;SDS011;395;48.132;11.608;2023-05-07T08:50:37;4.07;;;3.77;;
826;SDS011;395;48.132;11.608;2023-05-07T08:53:04;5.50;;;3.70;;
826;SDS011;395;48.132;11.608;2023-05-07T08:55:30;3.80;;;3.50;;
826;SDS011;395;48.132;11.608;2023-05-07T08:57:56;4.60;;;4.20;;
826;SDS011;395;48.132;11.608;2023-05-07T09:00:21;4.30;;;3.90;;
826;SDS011;395;48.132;11.608;2023-05-07T09:02:47;4.37;;;3.97;;
826;SDS011;395;48.132;11.608;2023-05-07T09:05:13;4.33;;;4.03;;
826;SDS011;395;48.132;11.608;2023-05-07T09:07:39;5.17;;;3.87;;
826;SDS011;395;48.132;11.608;2023-05-07T09:10:04;4.50;;;4.10;;
826;SDS011;395;48.132;11.608;2023-05-07T09:12:31;3.87;;;3.60;;
826;SDS011;395;48.132;11.608;2023-05-07T09:14:57;3.87;;;3.40;;
826;SDS011;395;48.132;11.608;2023-05-07T09:17:24;3.97;;;3.63;;
826;SDS011;395;48.132;11.608;2023-05-07T09:19:49;3.50;;;3.20;;
826;SDS011;395;48.132;11.608;2023-05-07T09:22:15;3.83;;;3.53;;
826;SDS011;395;48.132;11.608;2023-05-07T09:24:46;3.93;;;3.63;;
826;SDS011;395;48.132;11.608;2023-05-07T09:27:16;4.40;;;4.07;;
826;SDS011;395;48.132;11.608;2023-05-07T09:29:43;5.27;;;4.77;;
826;SDS011;395;48.132;11.608;2023-05-07T09:32:09;4.00;;;3.60;;
826;SDS011;395;48.132;11.608;2023-05-07T09:34:35;5.70;;;3.97;;
826;SDS011;395;48.132;11.608;2023-05-07T09:37:01;4.23;;;3.93;;
826;SDS011;395;48.132;11.608;2023-05-07T09:39:41;4.13;;;3.83;;
826;SDS011;395;48.132;11.608;2023-05-07T09:42:07;4.60;;;4.17;;
826;SDS011;395;48.132;11.608;2023-05-07T09:44:33;5.30;;;3.90;;
826;SDS011;395;48.132;11.608;2023-05-07T09:47:00;3.63;;;3.33;;
826;SDS011;395;48.132;11.608;2023-05-07T09:49:28;3.13;;;2.93;;
826;SDS011;395;48.132;11.608;2023-05-07T09:51:55;3.83;;;3.47;;
826;SDS011;395;48.132;11.608;2023-05-07T09:54:22;4.17;;;3.73;;
826;SDS011;395;48.132;11.608;2023-05-07T09:56:48;4.30;;;3.63;;
826;SDS011;395;48.132;11.608;2023-05-07T09:59:14;4.60;;;3.30;;
826;SDS011;395;48.132;11.608;2023-05-07T10:01:41;4.93;;;3.77;;
826;SDS011;395;48.132;11.608;2023-05-07T10:04:08;3.37;;;3.07;;
826;SDS011;395;48.132;11.608;2023-05-07T10:06:35;3.37;;;3.07;;
826;SDS011;395;48.132;11.608;2023-05-07T10:09:03;3.67;;;3.30;;
826;SDS011;395;48.132;11.608;2023-05-07T10:11:33;3.60;;;3.30;;
826;SDS011;395;48.132;11.608;2023-05-07T10:14:00;3.60;;;2.67;;
826;SDS011;395;48.132;11.608;2023-05-07T10:16:31;3.73;;;2.80;;
826;SDS011;395;48.132;11.608;2023-05-07T10:18:58;4.47;;;3.73;;
826;SDS011;395;48.132;11.608;2023-05-07T10:21:24;4.87;;;4.40;;
826;SDS011;395;48.132;11.608;2023-05-07T10:23:59;3.70;;;3.40;;
826;SDS011;395;48.132;11.608;2023-05-07T10:26:35;4.43;;;3.30;;
826;SDS011;395;48.132;11.608;2023-05-07T10:31:56;2.73;;;2.53;;
826;SDS011;395;48.132;11.608;2023-05-07T10:34:26;3.00;;;2.80;;
826;SDS011;395;48.132;11.608;2023-05-07T10:36:57;2.50;;;2.30;;
826;SDS011;395;48.132;11.608;2023-05-07T10:39:23;2.70;;;2.50;;
826;SDS011;395;48.132;11.608;2023-05-07T10:41:49;5.87;;;3.10;;
826;SDS011;395;48.132;11.608;2023-05-07T10:44:28;2.60;;;2.40;;
826;SDS011;395;48.132;11.608;2023-05-07T10:52:18;2.50;;;2.30;;
826;SDS011;395;48.132;11.608;2023-05-07T10:54:45;3.03;;;2.83;;
826;SDS011;395;48.132;11.608;2023-05-07T10:59:56;3.97;;;3.67;;
826;SDS011;395;48.132;11.608;2023-05-07T11:02:22;4.57;;;3.20;;
826;SDS011;395;48.132;11.608;2023-05-07T11:05:18;3.63;;;3.37;;
826;SDS011;395;48.132;11.608;2023-05-07T11:07:54;4.20;;;3.90;;
826;SDS011;395;48.132;11.608;2023-05-07T11:10:21;3.80;;;3.33;;
826;SDS011;395;48.132;11.608;2023-05-07T11:15:13;3.90;;;3.60;;
826;SDS011;395;48.132;11.608;2023-05-07T11:17:53;4.27;;;3.97;;
826;SDS011;395;48.132;11.608;2023-05-07T11:20:44;5.60;;;4.30;;
826;SDS011;395;48.132;11.608;2023-05-07T11:26:02;4.30;;;3.97;;
826;SDS011;395;48.132;11.608;2023-05-07T11:28:39;4.00;;;3.70;;
826;SDS011;395;48.132;11.608;2023-05-07T11:31:05;4.60;;;3.80;;
826;SDS011;395;48.132;11.608;2023-05-07T11:33:32;4.33;;;4.03;;
826;SDS011;395;48.132;11.608;2023-05-07T11:36:02;4.83;;;4.43;;
826;SDS011;395;48.132;11.608;2023-05-07T11:38:34;5.03;;;4.63;;
826;SDS011;395;48.132;11.608;2023-05-07T11:41:01;4.90;;;4.40;;
826;SDS011;395;48.132;11.608;2023-05-07T11:43:27;4.87;;;4.47;;
826;SDS011;395;48.132;11.608;2023-05-07T11:45:53;5.93;;;4.90;;
826;SDS011;395;48.132;11.608;2023-05-07T11:48:19;4.57;;;4.17;;
826;SDS011;395;48.132;11.608;2023-05-07T11:50:53;4.83;;;4.43;;
826;SDS011;395;48.132;11.608;2023-05-07T11:53:26;5.90;;;5.40;;
826;SDS011;395;48.132;11.608;2023-05-07T11:55:55;5.60;;;4.93;;
826;SDS011;395;48.132;11.608;2023-05-07T11:58:22;5.27;;;4.50;;
826;SDS011;395;48.132;11.608;2023-05-07T12:00:51;6.07;;;4.60;;
826;SDS011;395;48.132;11.608;2023-05-07T12:03:18;4.80;;;4.10;;
826;SDS011;395;48.132;11.608;2023-05-07T12:05:47;5.00;;;4.60;;
826;SDS011;395;48.132;11.608;2023-05-07T12:08:22;4.70;;;3.50;;
826;SDS011;395;48.132;11.608;2023-05-07T12:10:50;4.10;;;3.80;;
826;SDS011;395;48.132;11.608;2023-05-07T12:13:20;5.20;;;4.60;;
826;SDS011;395;48.132;11.608;2023-05-07T12:15:46;4.57;;;4.17;;
826;SDS011;395;48.132;11.608;2023-05-07T12:18:18;4.40;;;4.00;;
826;SDS011;395;48.132;11.608;2023-05-07T12:20:45;4.40;;;3.87;;
826;SDS011;395;48.132;11.608;2023-05-07T12:23:11;3.60;;;3.30;;
826;SDS011;395;48.132;11.608;2023-05-07T12:25:38;4.80;;;4.40;;
826;SDS011;395;48.132;11.608;2023-05-07T12:28:05;4.37;;;4.03;;
826;SDS011;395;48.132;11.608;2023-05-07T12:30:38;4.27;;;3.97;;
826;SDS011;395;48.132;11.608;2023-05-07T12:33:04;3.57;;;3.27;;
826;SDS011;395;48.132;11.608;2023-05-07T12:35:30;3.73;;;3.43;;
826;SDS011;395;48.132;11.608;2023-05-07T12:38:00;3.83;;;3.53;;
826;SDS011;395;48.132;11.608;2023-05-07T12:40:36;6.17;;;3.70;;
826;SDS011;395;48.132;11.608;2023-05-07T12:43:01;3.90;;;3.60;;
826;SDS011;395;48.132;11.608;2023-05-07T12:45:27;3.53;;;3.23;;
826;SDS011;395;48.132;11.608;2023-05-07T12:47:53;4.60;;;3.87;;
826;SDS011;395;48.132;11.608;2023-05-07T12:50:18;3.63;;;3.33;;
826;SDS011;395;48.132;11.608;2023-05-07T12:52:46;4.17;;;3.77;;
826;SDS011;395;48.132;11.608;2023-05-07T12:55:16;3.00;;;2.80;;
826;SDS011;395;48.132;11.608;2023-05-07T12:57:42;3.37;;;3.07;;
826;SDS011;395;48.132;11.608;2023-05-07T13:00:12;3.30;;;3.00;;
826;SDS011;395;48.132;11.608;2023-05-07T13:02:40;3.60;;;2.50;;
826;SDS011;395;48.132;11.608;2023-05-07T13:05:06;2.77;;;2.40;;
826;SDS011;395;48.132;11.608;2023-05-07T13:07:33;6.30;;;3.07;;
826;SDS011;395;48.132;11.608;2023-05-07T13:09:58;3.13;;;2.90;;
826;SDS011;395;48.132;11.608;2023-05-07T13:12:24;3.40;;;3.03;;
826;SDS011;395;48.132;11.608;2023-05-07T13:14:50;2.80;;;2.60;;
826;SDS011;395;48.132;11.608;2023-05-07T13:17:15;3.00;;;2.80;;
826;SDS011;395;48.132;11.608;2023-05-07T13:19:41;2.50;;;2.40;;
826;SDS011;395;48.132;11.608;2023-05-07T13:22:07;2.50;;;1.80;;
826;SDS011;395;48.132;11.608;2023-05-07T13:24:32;2.87;;;2.67;;
826;SDS011;395;48.132;11.608;2023-05-07T13:26:58;2.50;;;2.33;;
826;SDS011;395;48.132;11.608;2023-05-07T13:29:24;3.00;;;2.47;;
826;SDS011;395;48.132;11.608;2023-05-07T13:31:53;3.37;;;2.57;;
826;SDS011;395;48.132;11.608;2023-05-07T13:34:19;2.63;;;2.43;;
826;SDS011;395;48.132;11.608;2023-05-07T13:36:45;2.40;;;2.20;;
826;SDS011;395;48.132;11.608;2023-05-07T13:39:11;2.70;;;2.50;;
826;SDS011;395;48.132;11.608;2023-05-07T13:41:37;2.73;;;2.00;;
826;SDS011;395;48.132;11.608;2023-05-07T13:44:02;2.60;;;2.40;;
826;SDS011;395;48.132;11.608;2023-05-07T13:46:28;2.00;;;1.90;;
826;SDS011;395;48.132;11.608;2023-05-07T13:48:54;2.27;;;2.10;;
826;SDS011;395;48.132;11.608;2023-05-07T13:51:20;3.27;;;2.97;;
826;SDS011;395;48.132;11.608;2023-05-07T13:53:46;2.80;;;2.50;;
826;SDS011;395;48.132;11.608;2023-05-07T13:56:12;3.90;;;3.30;;
826;SDS011;395;48.132;11.608;2023-05-07T13:58:39;3.50;;;3.20;;
826;SDS011;395;48.132;11.608;2023-05-07T14:01:04;3.17;;;2.90;;
826;SDS011;395;48.132;11.608;2023-05-07T14:03:30;3.60;;;2.73;;
826;SDS011;395;48.132;11.608;2023-05-07T14:05:57;3.40;;;2.70;;
826;SDS011;395;48.132;11.608;2023-05-07T14:08:24;2.60;;;2.40;;
826;SDS011;395;48.132;11.608;2023-05-07T14:10:51;3.27;;;3.07;;
826;SDS011;395;48.132;11.608;2023-05-07T14:13:17;3.43;;;3.20;;
826;SDS011;395;48.132;11.608;2023-05-07T14:15:42;4.23;;;3.73;;
826;SDS011;395;48.132;11.608;2023-05-07T14:18:13;4.30;;;4.00;;
826;SDS011;395;48.132;11.608;2023-05-07T14:20:39;4.40;;;3.10;;
826;SDS011;395;48.132;11.608;2023-05-07T14:23:04;3.30;;;3.00;;
826;SDS011;395;48.132;11.608;2023-05-07T14:25:30;2.80;;;2.60;;
826;SDS011;395;48.132;11.608;2023-05-07T14:27:56;4.13;;;3.03;;
826;SDS011;395;48.132;11.608;2023-05-07T14:30:21;4.23;;;3.70;;
826;SDS011;395;48.132;11.608;2023-05-07T14:32:49;3.40;;;2.97;;
826;SDS011;395;48.132;11.608;2023-05-07T14:35:16;3.17;;;2.87;;
826;SDS011;395;48.132;11.608;2023-05-07T14:37:42;3.47;;;3.17;;
826;SDS011;395;48.132;11.608;2023-05-07T14:40:08;3.70;;;3.40;;
826;SDS011;395;48.132;11.608;2023-05-07T14:42:34;3.63;;;3.33;;
826;SDS011;395;48.132;11.608;2023-05-07T14:45:00;3.33;;;3.03;;
826;SDS011;395;48.132;11.608;2023-05-07T14:47:26;3.83;;;3.53;;
826;SDS011;395;48.132;11.608;2023-05-07T14:49:52;4.30;;;3.63;;
826;SDS011;395;48.132;11.608;2023-05-07T14:52:18;3.37;;;3.17;;
826;SDS011;395;48.132;11.608;2023-05-07T14:54:44;3.53;;;3.33;;
826;SDS011;395;48.132;11.608;2023-05-07T14:57:10;3.97;;;3.57;;
826;SDS011;395;48.132;11.608;2023-05-07T14:59:38;3.53;;;3.27;;
826;SDS011;395;48.132;11.608;2023-05-07T15:02:04;3.57;;;3.27;;
826;SDS011;395;48.132;11.608;2023-05-07T15:04:32;3.27;;;3.07;;
826;SDS011;395;48.132;11.608;2023-05-07T15:06:58;3.20;;;2.90;;
826;SDS011;395;48.132;11.608;2023-05-07T15:09:25;3.70;;;3.40;;
826;SDS011;395;48.132;11.608;2023-05-07T15:11:51;3.70;;;3.50;;
826;SDS011;395;48.132;11.608;2023-05-07T15:14:16;5.00;;;4.60;;
826;SDS011;395;48.132;11.608;2023-05-07T15:16:42;4.53;;;4.13;;
826;SDS011;395;48.132;11.608;2023-05-07T15:19:08;3.80;;;3.50;;
826;SDS011;395;48.132;11.608;2023-05-07T15:21:33;3.73;;;2.90;;
826;SDS011;395;48.132;11.608;2023-05-07T15:24:01;3.87;;;3.50;;
826;SDS011;395;48.132;11.608;2023-05-07T15:26:27;3.33;;;3.07;;
826;SDS011;395;48.132;11.608;2023-05-07T15:28:52;3.63;;;3.33;;
826;SDS011;395;48.132;11.608;2023-05-07T15:31:20;4.00;;;3.27;;
826;SDS011;395;48.132;11.608;2023-05-07T15:33:46;4.20;;;2.67;;
826;SDS011;395;48.132;11.608;2023-05-07T15:36:12;3.50;;;3.20;;
826;SDS011;395;48.132;11.608;2023-05-07T15:38:38;3.53;;;3.10;;
826;SDS011;395;48.132;11.608;2023-05-07T15:41:03;5.10;;;3.00;;
826;SDS011;395;48.132;11.608;2023-05-07T15:43:29;3.43;;;3.13;;